Time;durP1;ratioP1;P1;durP2;ratioP2;P2;SDS_P1;SDS_P2;PMS_P1;PMS_P2;Temp;Humidity;BMP_temperature;BMP_pressure;BME280_temperature;BME280_humidity;BME280_pressure;Samples;Min_cycle;Max_cycle;Signal;HPM_P1;HPM_P2
2022/12/22 03:28:06;;;;;;;1.67;1.57;;;9.20;99.90;;;;;;5029790;28;20941;-73
2022/12/22 03:30:32;;;;;;;2.13;1.67;;;9.20;99.90;;;;;;5032797;28;20995;-73
2022/12/22 03:32:57;;;;;;;2.30;1.60;;;9.20;99.90;;;;;;5032015;28;20468;-73
2022/12/22 03:35:23;;;;;;;1.63;1.53;;;9.20;99.90;;;;;;5032278;28;20191;-73
2022/12/22 03:37:48;;;;;;;5.10;1.97;;;9.10;99.90;;;;;;5033009;28;20209;-73
2022/12/22 03:40:14;;;;;;;2.50;1.83;;;9.10;99.90;;;;;;5032703;28;20174;-73
2022/12/22 03:48:08;;;;;;;2.10;1.70;;;9.10;99.90;;;;;;5032956;28;20492;-73
2022/12/22 03:50:33;;;;;;;2.53;2.40;;;9.20;99.90;;;;;;5031896;28;20472;-73
2022/12/22 03:52:59;;;;;;;2.00;1.70;;;9.20;99.90;;;;;;5030606;28;20214;-72
2022/12/22 03:55:24;;;;;;;2.03;1.30;;;9.20;99.90;;;;;;5030371;28;20213;-69
2022/12/22 03:57:50;;;;;;;1.87;1.77;;;9.20;99.90;;;;;;5032188;28;20266;-69
2022/12/22 04:00:16;;;;;;;2.97;1.30;;;9.20;99.90;;;;;;5032089;28;20209;-73
2022/12/22 04:02:41;;;;;;;2.10;1.13;;;9.20;99.90;;;;;;5031199;28;20269;-73
2022/12/22 04:05:07;;;;;;;2.30;1.50;;;9.20;99.90;;;;;;5032345;28;20500;-73
2022/12/22 04:07:33;;;;;;;1.53;1.43;;;9.20;99.90;;;;;;5031131;28;20327;-73
2022/12/22 04:12:54;;;;;;;2.03;1.60;;;9.20;99.90;;;;;;5031229;28;20303;-73
2022/12/22 04:15:25;;;;;;;1.23;1.13;;;9.20;99.90;;;;;;5030916;28;20992;-73
2022/12/22 04:17:51;;;;;;;3.30;1.23;;;9.30;99.90;;;;;;5031425;28;20436;-73
2022/12/22 04:20:18;;;;;;;1.80;1.47;;;9.30;99.90;;;;;;5031876;28;20853;-74
2022/12/22 04:22:44;;;;;;;2.10;1.57;;;9.30;99.90;;;;;;5032538;28;20571;-73
2022/12/22 04:25:10;;;;;;;4.43;1.60;;;9.30;99.90;;;;;;5032303;28;20436;-74
2022/12/22 04:27:35;;;;;;;1.20;1.20;;;9.30;99.90;;;;;;5028403;28;20190;-73
2022/12/22 04:30:01;;;;;;;2.90;1.33;;;9.30;99.90;;;;;;5030808;28;20795;-73
2022/12/22 04:32:27;;;;;;;1.30;1.20;;;9.30;99.90;;;;;;5031625;28;20222;-73
2022/12/22 04:34:52;;;;;;;1.17;1.03;;;9.30;99.90;;;;;;5032273;28;20437;-72
2022/12/22 04:37:18;;;;;;;3.13;1.60;;;9.30;99.90;;;;;;5029381;28;20668;-73
2022/12/22 04:39:43;;;;;;;1.10;1.00;;;9.30;99.90;;;;;;5030835;28;20585;-73
2022/12/22 04:42:09;;;;;;;3.93;1.40;;;9.20;99.90;;;;;;5028857;28;20249;-72
2022/12/22 04:44:34;;;;;;;2.40;1.10;;;9.20;99.90;;;;;;5031724;28;20201;-74
2022/12/22 04:47:00;;;;;;;3.40;1.00;;;9.30;99.90;;;;;;5031124;28;20174;-73
2022/12/22 04:49:25;;;;;;;1.87;1.30;;;9.30;99.90;;;;;;5031033;28;20185;-70
2022/12/22 04:51:51;;;;;;;2.10;1.47;;;9.30;99.90;;;;;;5028953;28;20288;-69
2022/12/22 04:54:16;;;;;;;2.87;1.27;;;9.30;99.90;;;;;;5030942;28;20289;-73
2022/12/22 04:56:42;;;;;;;4.20;1.30;;;9.40;99.90;;;;;;5030002;28;20182;-72
2022/12/22 04:59:07;;;;;;;0.90;0.90;;;9.40;99.90;;;;;;5030767;28;20174;-73
2022/12/22 05:01:33;;;;;;;1.53;1.00;;;9.40;99.90;;;;;;5029448;28;20190;-72
2022/12/22 05:03:58;;;;;;;3.00;1.30;;;9.50;99.90;;;;;;5029808;28;20686;-73
2022/12/22 05:06:24;;;;;;;1.97;1.57;;;9.50;99.90;;;;;;5031144;28;20656;-73
2022/12/22 05:08:49;;;;;;;1.80;1.23;;;9.60;99.90;;;;;;5031771;28;20181;-73
2022/12/22 05:11:15;;;;;;;5.17;1.70;;;9.60;99.90;;;;;;5028710;28;20182;-73
2022/12/22 05:13:40;;;;;;;3.63;2.80;;;9.60;99.90;;;;;;5028328;28;20588;-73
2022/12/22 05:16:09;;;;;;;4.80;1.23;;;9.60;99.90;;;;;;5032757;28;20178;-72
2022/12/22 05:18:36;;;;;;;2.73;1.23;;;9.50;99.90;;;;;;5030802;28;20554;-73
2022/12/22 05:21:05;;;;;;;1.80;1.27;;;9.60;99.90;;;;;;5024312;28;20595;-73
2022/12/22 05:23:30;;;;;;;6.13;1.17;;;9.60;99.90;;;;;;5029029;28;20544;-73
2022/12/22 05:25:56;;;;;;;2.80;1.30;;;9.70;99.90;;;;;;5029787;28;20858;-72
2022/12/22 05:28:21;;;;;;;2.53;1.27;;;9.70;99.90;;;;;;5031708;28;20659;-71
2022/12/22 05:30:47;;;;;;;4.33;1.57;;;9.70;99.90;;;;;;5031235;28;20232;-73
2022/12/22 05:33:12;;;;;;;2.53;1.40;;;9.70;99.90;;;;;;5031657;28;20675;-72
2022/12/22 05:35:38;;;;;;;4.23;0.97;;;9.70;99.90;;;;;;5030366;28;20178;-72
2022/12/22 05:38:03;;;;;;;2.97;1.20;;;9.70;99.90;;;;;;5031518;28;20188;-73
2022/12/22 05:40:28;;;;;;;5.60;1.60;;;9.60;99.90;;;;;;5030949;28;20181;-69
2022/12/22 05:42:54;;;;;;;2.27;1.73;;;9.60;99.90;;;;;;5029707;28;20675;-72
2022/12/22 05:45:20;;;;;;;4.10;1.43;;;9.60;99.90;;;;;;5030812;28;20182;-73
2022/12/22 05:47:48;;;;;;;3.37;1.13;;;9.60;99.90;;;;;;5029374;28;20240;-73
2022/12/22 05:50:16;;;;;;;3.87;1.43;;;9.60;99.90;;;;;;5029022;28;21031;-73
2022/12/22 05:52:42;;;;;;;5.57;2.07;;;9.60;99.90;;;;;;5023659;28;20535;-72
2022/12/22 05:55:09;;;;;;;3.13;1.50;;;9.60;99.90;;;;;;5031687;28;20515;-73
2022/12/22 05:57:35;;;;;;;5.97;1.77;;;9.60;99.90;;;;;;5029958;28;20175;-73
2022/12/22 06:00:01;;;;;;;6.70;1.93;;;9.60;99.90;;;;;;5029568;28;21004;-73
2022/12/22 06:02:27;;;;;;;2.70;1.70;;;9.60;99.90;;;;;;5029556;28;20671;-73
2022/12/22 06:04:52;;;;;;;3.90;1.50;;;9.50;99.90;;;;;;5030518;28;20443;-74
2022/12/22 06:07:18;;;;;;;3.40;1.70;;;9.40;99.90;;;;;;5030276;28;20192;-73
2022/12/22 06:09:43;;;;;;;4.03;1.83;;;9.40;99.90;;;;;;5030864;28;20598;-73
2022/12/22 06:12:09;;;;;;;1.80;1.23;;;9.40;99.90;;;;;;5030862;28;20232;-72
2022/12/22 06:14:34;;;;;;;6.43;1.60;;;9.50;99.90;;;;;;5030900;28;20213;-72
2022/12/22 06:17:00;;;;;;;2.97;1.73;;;9.40;99.90;;;;;;5031060;28;20196;-72
2022/12/22 06:19:26;;;;;;;4.03;1.90;;;9.40;99.90;;;;;;5029885;28;20182;-72
2022/12/22 06:21:52;;;;;;;3.00;1.50;;;9.40;99.90;;;;;;5030248;28;20194;-72
2022/12/22 06:24:17;;;;;;;6.73;3.07;;;9.40;99.90;;;;;;5030423;28;20198;-72
2022/12/22 06:26:43;;;;;;;5.90;1.90;;;9.50;99.90;;;;;;5030287;28;20249;-71
2022/12/22 06:29:08;;;;;;;5.00;3.20;;;9.50;99.90;;;;;;5030321;28;20297;-71
2022/12/22 06:31:34;;;;;;;4.40;2.40;;;9.60;99.90;;;;;;5030894;28;20190;-72
2022/12/22 06:33:59;;;;;;;7.47;2.20;;;9.60;99.90;;;;;;5031078;28;20205;-72
2022/12/22 06:36:25;;;;;;;3.60;1.60;;;9.70;99.90;;;;;;5030441;28;20175;-71
2022/12/22 06:38:50;;;;;;;6.20;1.60;;;9.70;99.90;;;;;;5029774;28;20725;-72
2022/12/22 06:43:07;;;;;;;10.30;1.80;;;9.70;99.90;;;;;;5030203;28;20170;-71
2022/12/22 06:44:01;;;;;;;3.23;2.00;;;9.80;99.90;;;;;;5029556;28;20217;-71
2022/12/22 06:46:27;;;;;;;2.50;1.63;;;9.90;99.90;;;;;;5029188;28;20468;-71
2022/12/22 06:48:52;;;;;;;4.60;2.27;;;10.00;99.90;;;;;;5028435;28;20265;-71
2022/12/22 06:51:18;;;;;;;4.80;1.90;;;10.00;99.90;;;;;;5030714;28;20658;-72
2022/12/22 06:53:43;;;;;;;1.50;1.07;;;10.10;99.90;;;;;;5029526;28;20206;-72
2022/12/22 06:56:09;;;;;;;4.93;1.77;;;10.20;99.90;;;;;;5030327;28;20593;-71
2022/12/22 06:58:34;;;;;;;4.00;2.50;;;10.30;99.90;;;;;;5029389;28;20205;-71
2022/12/22 07:01:00;;;;;;;5.97;2.37;;;10.30;99.90;;;;;;5028813;28;20198;-72
2022/12/22 07:03:25;;;;;;;5.87;2.30;;;10.30;99.90;;;;;;5030522;28;20240;-72
2022/12/22 07:05:51;;;;;;;2.43;1.57;;;10.30;99.90;;;;;;5029592;28;20186;-72
2022/12/22 07:08:16;;;;;;;3.77;1.67;;;10.20;99.90;;;;;;5028720;28;20186;-70
2022/12/22 07:10:58;;;;;;;9.40;3.27;;;10.20;99.90;;;;;;5031165;28;20187;-71
2022/12/22 07:13:27;;;;;;;8.90;2.23;;;10.20;99.90;;;;;;5029673;28;20210;-70
2022/12/22 07:15:53;;;;;;;5.03;2.00;;;10.20;99.90;;;;;;5030819;28;20440;-71
2022/12/22 07:18:19;;;;;;;4.57;1.80;;;10.30;99.90;;;;;;5031263;28;20433;-70
2022/12/22 07:20:44;;;;;;;7.93;1.90;;;10.30;99.90;;;;;;5034109;28;20463;-72
2022/12/22 07:23:11;;;;;;;11.20;2.30;;;10.20;99.90;;;;;;5033245;28;20925;-72
2022/12/22 07:25:37;;;;;;;5.73;1.70;;;10.20;99.90;;;;;;5033283;28;20178;-71
2022/12/22 07:28:04;;;;;;;6.50;1.70;;;10.20;99.90;;;;;;5033968;28;21049;-72
2022/12/22 07:30:29;;;;;;;7.70;2.57;;;10.20;99.90;;;;;;5027077;28;20212;-71
2022/12/22 07:32:55;;;;;;;6.80;2.97;;;10.20;99.90;;;;;;5025203;28;20563;-70
2022/12/22 07:35:20;;;;;;;5.93;2.53;;;10.30;99.90;;;;;;5005128;28;20209;-72
2022/12/22 07:37:49;;;;;;;3.63;2.40;;;10.30;99.90;;;;;;5014833;28;20186;-71
2022/12/22 07:40:15;;;;;;;6.00;1.60;;;10.40;99.90;;;;;;5024218;28;20244;-72
2022/12/22 07:42:43;;;;;;;8.80;2.97;;;10.30;99.90;;;;;;5027755;28;20548;-71
2022/12/22 07:45:13;;;;;;;6.47;2.20;;;10.20;99.90;;;;;;5025242;28;20551;-72
2022/12/22 07:47:39;;;;;;;9.10;2.10;;;9.90;99.90;;;;;;5024688;28;20438;-71
2022/12/22 07:50:23;;;;;;;3.17;1.70;;;9.80;99.90;;;;;;5032343;28;20433;-71
2022/12/22 07:52:52;;;;;;;7.37;2.73;;;9.70;99.90;;;;;;5032019;28;20467;-71
2022/12/22 07:55:18;;;;;;;6.27;2.50;;;9.50;99.90;;;;;;5029738;28;20516;-71
2022/12/22 07:57:44;;;;;;;10.83;2.90;;;9.40;99.90;;;;;;5032175;28;20439;-70
2022/12/22 08:00:10;;;;;;;7.57;1.80;;;9.40;99.90;;;;;;5033503;28;20437;-71
2022/12/22 08:02:36;;;;;;;6.60;4.03;;;9.30;99.90;;;;;;5032654;28;20463;-70
2022/12/22 08:05:01;;;;;;;10.97;3.77;;;9.30;99.90;;;;;;5024697;28;20432;-71
2022/12/22 08:07:27;;;;;;;5.67;3.00;;;9.60;99.90;;;;;;5031781;28;20184;-71
2022/12/22 08:09:52;;;;;;;4.17;1.97;;;9.90;99.90;;;;;;5031369;28;20308;-71
2022/12/22 08:12:18;;;;;;;5.00;1.90;;;10.10;99.90;;;;;;5029348;28;20222;-71
2022/12/22 08:14:44;;;;;;;7.60;2.30;;;10.10;99.90;;;;;;5028842;28;20269;-71
2022/12/22 08:17:11;;;;;;;7.10;2.23;;;9.90;99.90;;;;;;5032669;28;21380;-72
2022/12/22 08:19:37;;;;;;;8.07;4.07;;;9.80;99.90;;;;;;5031550;28;20447;-72
2022/12/22 08:22:03;;;;;;;3.43;1.90;;;9.60;99.90;;;;;;5029765;28;21016;-71
2022/12/22 08:24:29;;;;;;;7.00;2.63;;;9.70;99.90;;;;;;5027739;28;20182;-70
2022/12/22 08:27:02;;;;;;;8.20;2.60;;;10.20;99.90;;;;;;5027587;28;20448;-71
2022/12/22 08:29:45;;;;;;;5.90;2.13;;;10.70;99.90;;;;;;5028214;28;20174;-71
2022/12/22 08:32:12;;;;;;;4.37;2.03;;;10.50;99.90;;;;;;5013817;28;20841;-71
2022/12/22 08:34:38;;;;;;;6.03;2.03;;;10.40;99.90;;;;;;5026283;28;20876;-71
2022/12/22 08:37:09;;;;;;;8.13;2.03;;;10.50;99.90;;;;;;5030476;28;20807;-71
2022/12/22 08:39:38;;;;;;;5.70;2.10;;;10.50;99.90;;;;;;5032444;28;20532;-71
2022/12/22 08:42:07;;;;;;;6.20;2.40;;;10.40;99.90;;;;;;5028272;28;20565;-70
2022/12/22 08:44:33;;;;;;;10.23;2.63;;;10.30;99.90;;;;;;5027888;28;20433;-69
2022/12/22 08:46:59;;;;;;;13.90;5.33;;;10.30;99.90;;;;;;5029364;28;21011;-69
2022/12/22 08:49:25;;;;;;;6.27;2.90;;;10.30;99.90;;;;;;5028675;28;20546;-69
2022/12/22 08:51:51;;;;;;;5.23;3.37;;;11.00;99.90;;;;;;5032061;28;20248;-69
2022/12/22 08:54:17;;;;;;;5.40;2.80;;;11.90;99.90;;;;;;5024115;28;20555;-70
2022/12/22 08:56:43;;;;;;;7.90;3.60;;;12.00;99.90;;;;;;5031345;28;20958;-69
2022/12/22 08:59:08;;;;;;;11.73;2.30;;;12.30;99.90;;;;;;5032479;28;20467;-71
2022/12/22 09:01:37;;;;;;;8.00;2.50;;;12.60;99.90;;;;;;5029115;28;20440;-69
2022/12/22 09:04:03;;;;;;;4.40;1.90;;;13.30;99.90;;;;;;5021085;28;20179;-68
2022/12/22 09:06:29;;;;;;;5.97;1.87;;;13.80;99.90;;;;;;5022493;28;20436;-67
2022/12/22 09:08:57;;;;;;;3.87;1.73;;;14.30;99.90;;;;;;5026714;28;20417;-67
2022/12/22 09:11:23;;;;;;;2.80;1.63;;;15.10;99.90;;;;;;5031428;28;20436;-68
2022/12/22 09:13:51;;;;;;;5.60;1.83;;;14.90;99.90;;;;;;5027125;28;20471;-68
2022/12/22 09:16:17;;;;;;;5.17;2.20;;;13.90;99.90;;;;;;5033752;28;20420;-69
2022/12/22 09:18:43;;;;;;;8.10;2.53;;;12.80;99.90;;;;;;5032229;28;20449;-69
2022/12/22 09:21:09;;;;;;;3.40;1.70;;;11.80;99.90;;;;;;5018826;28;20469;-69
2022/12/22 09:23:34;;;;;;;7.43;2.67;;;11.00;99.90;;;;;;5029185;28;20212;-71
2022/12/22 09:26:09;;;;;;;4.83;1.93;;;10.50;99.90;;;;;;5032278;28;20175;-69
2022/12/22 09:28:36;;;;;;;5.33;1.90;;;10.20;99.90;;;;;;5025011;28;20647;-70
2022/12/22 09:31:02;;;;;;;7.40;2.50;;;10.00;99.90;;;;;;5032359;28;20436;-69
2022/12/22 09:33:27;;;;;;;5.33;2.47;;;9.90;99.90;;;;;;5021602;28;20480;-69
2022/12/22 09:35:53;;;;;;;5.53;2.60;;;9.80;99.90;;;;;;5024254;28;20261;-70
2022/12/22 09:38:19;;;;;;;4.80;2.60;;;9.80;99.90;;;;;;5021377;28;20210;-69
2022/12/22 09:40:45;;;;;;;16.80;3.80;;;9.70;99.90;;;;;;5025968;28;20292;-70
2022/12/22 09:43:16;;;;;;;7.70;3.23;;;9.70;99.90;;;;;;5028824;28;20197;-70
2022/12/22 09:45:43;;;;;;;8.50;2.27;;;9.70;99.90;;;;;;5027956;28;20531;-69
2022/12/22 09:48:13;;;;;;;12.77;3.57;;;9.60;99.90;;;;;;5024948;28;20448;-69
2022/12/22 09:50:40;;;;;;;13.00;3.00;;;9.60;99.90;;;;;;5028826;28;21031;-69
2022/12/22 09:53:16;;;;;;;7.07;3.50;;;9.60;99.90;;;;;;5024516;28;20460;-69
2022/12/22 09:55:44;;;;;;;5.47;3.00;;;9.50;99.90;;;;;;5025740;28;20432;-70
2022/12/22 09:58:31;;;;;;;11.13;3.73;;;9.50;99.90;;;;;;5027258;28;20420;-69
2022/12/22 10:01:09;;;;;;;5.67;2.87;;;9.50;99.90;;;;;;5028801;28;20436;-69
2022/12/22 10:03:46;;;;;;;6.90;2.27;;;9.50;99.90;;;;;;5022449;28;20475;-69
2022/12/22 10:06:35;;;;;;;7.20;2.43;;;9.50;99.90;;;;;;5022203;28;21033;-71
2022/12/22 10:09:22;;;;;;;6.07;2.17;;;9.60;99.90;;;;;;5022893;28;20461;-70
2022/12/22 10:11:59;;;;;;;4.63;1.53;;;9.70;99.90;;;;;;5030671;28;20488;-71
2022/12/22 10:14:31;;;;;;;6.17;2.07;;;9.70;99.90;;;;;;5027458;28;20511;-71
2022/12/22 10:17:17;;;;;;;2.53;1.77;;;9.80;99.90;;;;;;5028927;28;20433;-71
2022/12/22 10:19:43;;;;;;;6.87;1.70;;;9.80;99.90;;;;;;5023715;28;20417;-69
2022/12/22 10:22:30;;;;;;;7.50;3.10;;;9.80;99.90;;;;;;5030536;28;20476;-69
2022/12/22 10:24:56;;;;;;;7.63;2.00;;;9.90;99.90;;;;;;5025504;28;20428;-69
2022/12/22 10:27:25;;;;;;;3.87;1.70;;;10.00;99.90;;;;;;5028449;28;20429;-70
2022/12/22 10:29:51;;;;;;;3.63;1.97;;;10.00;99.90;;;;;;5029066;28;20494;-69
2022/12/22 10:32:19;;;;;;;5.27;1.87;;;9.90;99.90;;;;;;5031360;28;20429;-70
2022/12/22 10:35:05;;;;;;;6.00;2.20;;;9.90;99.90;;;;;;5027598;28;20619;-72
2022/12/22 10:37:34;;;;;;;3.20;1.93;;;9.90;99.90;;;;;;5023458;28;20425;-73
2022/12/22 10:40:15;;;;;;;4.63;2.00;;;9.90;99.90;;;;;;5030395;28;20805;-72
2022/12/22 10:42:52;;;;;;;4.30;2.10;;;9.90;99.90;;;;;;5029107;28;20476;-72
2022/12/22 10:45:20;;;;;;;8.03;2.60;;;9.90;99.90;;;;;;5029587;28;20436;-72
2022/12/22 10:47:48;;;;;;;6.50;2.07;;;9.80;99.90;;;;;;5035577;28;20479;-73
2022/12/22 10:50:14;;;;;;;6.30;2.30;;;9.90;99.90;;;;;;5033977;28;20445;-72
2022/12/22 10:52:40;;;;;;;5.23;1.70;;;9.90;99.90;;;;;;5026941;28;20467;-72
2022/12/22 10:55:38;;;;;;;7.00;1.60;;;9.80;99.90;;;;;;5031012;28;20413;-72
2022/12/22 10:58:09;;;;;;;3.70;1.57;;;9.80;99.90;;;;;;4988889;28;20686;-71
2022/12/22 11:00:37;;;;;;;3.90;1.60;;;9.80;99.90;;;;;;5025362;28;20436;-70
2022/12/22 11:03:05;;;;;;;3.60;1.70;;;9.80;99.90;;;;;;5030756;28;20531;-71
2022/12/22 11:05:32;;;;;;;10.37;2.83;;;9.90;99.90;;;;;;5029011;28;20436;-70
2022/12/22 11:08:17;;;;;;;3.00;2.20;;;10.00;99.90;;;;;;5024604;28;20438;-69
2022/12/22 11:11:03;;;;;;;5.93;2.07;;;10.20;99.90;;;;;;5030973;28;20520;-69
2022/12/22 11:13:56;;;;;;;6.93;2.73;;;10.40;99.90;;;;;;5030258;28;20479;-69
2022/12/22 11:16:48;;;;;;;4.63;2.00;;;10.60;99.90;;;;;;5027891;28;20523;-69
2022/12/22 11:19:28;;;;;;;5.27;1.60;;;10.70;99.90;;;;;;5034281;28;20428;-70
2022/12/22 11:22:05;;;;;;;6.57;2.00;;;10.90;99.90;;;;;;5033564;28;20559;-70
2022/12/22 11:25:01;;;;;;;6.70;1.97;;;11.50;99.90;;;;;;5030293;28;20478;-70
2022/12/22 11:27:52;;;;;;;4.53;1.57;;;12.20;99.90;;;;;;5033391;28;20954;-70
2022/12/22 11:30:22;;;;;;;2.07;1.30;;;12.60;99.90;;;;;;5032888;28;20444;-70
2022/12/22 11:33:04;;;;;;;4.57;1.50;;;12.50;99.90;;;;;;5034588;28;21050;-70
2022/12/22 11:35:46;;;;;;;2.17;1.27;;;12.00;99.90;;;;;;5030205;28;21032;-70
2022/12/22 11:38:39;;;;;;;4.80;1.77;;;11.70;99.90;;;;;;5034190;28;20432;-69
2022/12/22 11:41:10;;;;;;;2.00;1.30;;;11.70;99.90;;;;;;5021516;28;20849;-70
2022/12/22 11:43:56;;;;;;;4.90;2.00;;;11.60;99.90;;;;;;5029822;28;20614;-70
2022/12/22 11:46:25;;;;;;;7.50;1.57;;;11.60;99.90;;;;;;5033845;28;20449;-69
2022/12/22 11:49:04;;;;;;;3.23;1.30;;;11.50;99.90;;;;;;5032738;28;20440;-67
2022/12/22 11:51:29;;;;;;;3.50;1.20;;;11.50;99.90;;;;;;5034340;28;20436;-67
2022/12/22 11:54:06;;;;;;;3.50;1.43;;;11.60;99.90;;;;;;5028239;28;20492;-68
2022/12/22 11:56:37;;;;;;;2.73;1.17;;;11.70;99.90;;;;;;5032882;28;20170;-67
2022/12/22 11:59:36;;;;;;;4.97;1.47;;;11.70;99.90;;;;;;5032768;28;20428;-71
2022/12/22 12:02:27;;;;;;;6.97;1.93;;;11.80;99.90;;;;;;5032558;28;20904;-71
2022/12/22 12:05:10;;;;;;;3.63;1.40;;;11.80;99.90;;;;;;5020651;28;20432;-69
2022/12/22 12:07:49;;;;;;;6.10;1.87;;;11.80;99.90;;;;;;5032151;28;20447;-70
2022/12/22 12:10:23;;;;;;;2.20;1.60;;;11.90;99.90;;;;;;5033223;28;20562;-69
2022/12/22 12:13:19;;;;;;;4.20;1.27;;;12.10;99.90;;;;;;5024575;28;20476;-71
2022/12/22 12:16:17;;;;;;;2.30;1.20;;;12.60;99.90;;;;;;5029501;28;20421;-71
2022/12/22 12:19:12;;;;;;;1.70;1.47;;;12.80;99.90;;;;;;5030504;28;20452;-72
2022/12/22 12:21:43;;;;;;;3.57;2.00;;;13.00;99.90;;;;;;4953644;28;20451;-71
2022/12/22 12:24:30;;;;;;;4.33;1.67;;;13.00;99.90;;;;;;5025634;28;20472;-71
2022/12/22 12:27:20;;;;;;;2.57;1.17;;;12.70;99.90;;;;;;5030020;28;20440;-72
2022/12/22 12:30:01;;;;;;;2.40;1.57;;;12.70;99.90;;;;;;5026422;28;20445;-72
2022/12/22 12:32:38;;;;;;;3.23;1.57;;;12.60;99.90;;;;;;5027112;28;20472;-71
2022/12/22 12:35:20;;;;;;;1.70;1.13;;;12.30;99.90;;;;;;5024905;28;20437;-72
2022/12/22 12:37:51;;;;;;;1.10;1.00;;;12.10;99.90;;;;;;5029153;28;20450;-71
2022/12/22 12:40:40;;;;;;;1.30;1.10;;;12.00;99.90;;;;;;5030225;28;20803;-71
2022/12/22 12:43:06;;;;;;;2.37;1.00;;;11.70;99.90;;;;;;5025171;28;20514;-71
2022/12/22 12:45:33;;;;;;;3.30;0.90;;;11.70;99.90;;;;;;5019325;28;20481;-71
2022/12/22 12:48:24;;;;;;;2.77;1.20;;;11.60;99.90;;;;;;5025148;28;20483;-71
2022/12/22 12:50:54;;;;;;;2.33;1.00;;;11.50;99.90;;;;;;5025745;28;20437;-70
2022/12/22 12:53:29;;;;;;;4.03;1.30;;;11.40;99.90;;;;;;5029793;28;21084;-70
2022/12/22 12:55:57;;;;;;;3.23;1.17;;;11.40;99.90;;;;;;5025274;28;20527;-71
2022/12/22 12:58:37;;;;;;;1.73;0.87;;;11.40;99.90;;;;;;5030262;28;20439;-71
2022/12/22 13:01:16;;;;;;;1.90;0.87;;;11.40;99.90;;;;;;5030128;28;20447;-70
2022/12/22 13:03:43;;;;;;;2.77;1.17;;;11.40;99.90;;;;;;5023337;28;20468;-71
2022/12/22 13:06:30;;;;;;;6.30;1.00;;;11.30;99.90;;;;;;5028808;28;20445;-71
2022/12/22 13:09:05;;;;;;;2.57;1.10;;;11.30;99.90;;;;;;5028800;28;20445;-71
2022/12/22 13:11:34;;;;;;;3.10;1.43;;;11.30;99.90;;;;;;5031807;28;20505;-71
2022/12/22 13:13:59;;;;;;;3.20;1.60;;;11.20;99.90;;;;;;5029777;28;20829;-72
2022/12/22 13:16:27;;;;;;;1.80;1.30;;;11.20;99.90;;;;;;5030604;28;20515;-71
2022/12/22 13:18:57;;;;;;;1.40;1.23;;;11.30;99.90;;;;;;5028995;28;20309;-70
2022/12/22 13:21:27;;;;;;;1.80;0.90;;;11.30;99.90;;;;;;5031722;28;20437;-72
2022/12/22 13:24:10;;;;;;;1.10;1.00;;;11.30;99.90;;;;;;5030179;28;20453;-72
2022/12/22 13:26:38;;;;;;;2.10;1.00;;;11.20;99.90;;;;;;5031084;28;20445;-69
2022/12/22 13:29:26;;;;;;;2.03;1.93;;;11.30;99.90;;;;;;5028567;28;20531;-71
2022/12/22 13:32:01;;;;;;;3.77;2.17;;;11.30;99.90;;;;;;5025819;28;20568;-72
2022/12/22 13:34:26;;;;;;;3.70;2.03;;;11.40;99.90;;;;;;5030455;28;20837;-71
2022/12/22 13:36:54;;;;;;;2.10;1.30;;;11.40;99.90;;;;;;5031074;28;20443;-72
2022/12/22 13:39:20;;;;;;;2.67;1.67;;;11.30;99.90;;;;;;5029450;28;20265;-72
2022/12/22 13:41:48;;;;;;;2.13;1.20;;;11.40;99.90;;;;;;5028370;28;22391;-72
2022/12/22 13:44:22;;;;;;;1.73;1.00;;;11.50;99.90;;;;;;5030632;28;20437;-71
2022/12/22 13:46:48;;;;;;;1.60;1.00;;;11.60;99.90;;;;;;5026470;28;20449;-71
2022/12/22 13:49:17;;;;;;;6.37;1.40;;;11.70;99.90;;;;;;5029134;28;20452;-70
2022/12/22 13:51:45;;;;;;;2.10;0.83;;;11.80;99.90;;;;;;5025050;28;20209;-71
2022/12/22 13:54:28;;;;;;;2.73;1.10;;;11.90;99.90;;;;;;5029414;28;20477;-72
2022/12/22 13:56:58;;;;;;;3.90;1.00;;;11.80;99.90;;;;;;5025900;28;20432;-72
2022/12/22 13:59:23;;;;;;;3.73;1.40;;;11.70;99.90;;;;;;5028051;28;20517;-71
2022/12/22 14:01:50;;;;;;;5.30;1.37;;;11.70;99.90;;;;;;5027709;28;20567;-71
2022/12/22 14:04:16;;;;;;;1.90;1.27;;;11.70;99.90;;;;;;5027926;28;20291;-69
2022/12/22 14:06:41;;;;;;;2.20;2.00;;;11.60;99.90;;;;;;5028480;28;20477;-71
2022/12/22 14:09:24;;;;;;;2.97;1.23;;;11.60;99.90;;;;;;5027542;28;20671;-72
2022/12/22 14:12:06;;;;;;;2.03;1.17;;;11.60;99.90;;;;;;5028636;28;20274;-70
2022/12/22 14:14:38;;;;;;;2.60;1.67;;;11.60;99.90;;;;;;5030026;28;20539;-72
2022/12/22 14:17:25;;;;;;;2.33;1.83;;;11.50;99.90;;;;;;5023534;28;20476;-73
2022/12/22 14:19:56;;;;;;;3.37;1.43;;;11.40;99.90;;;;;;5032222;28;20498;-72
2022/12/22 14:22:45;;;;;;;2.83;1.77;;;11.30;99.90;;;;;;5034912;28;20538;-73
2022/12/22 14:25:20;;;;;;;2.30;1.43;;;11.30;99.90;;;;;;5035048;28;20444;-73
2022/12/22 14:27:53;;;;;;;3.27;1.50;;;11.20;99.90;;;;;;5035286;28;20493;-73
2022/12/22 14:30:25;;;;;;;1.73;1.50;;;11.20;99.90;;;;;;5033751;28;20475;-73
2022/12/22 14:32:55;;;;;;;8.27;2.10;;;11.10;99.90;;;;;;5036929;28;20498;-72
2022/12/22 14:35:20;;;;;;;6.57;1.97;;;11.10;99.90;;;;;;5035710;28;20441;-71
2022/12/22 14:37:54;;;;;;;4.30;2.30;;;11.10;99.90;;;;;;5034920;28;20842;-72
2022/12/22 14:40:35;;;;;;;4.07;1.77;;;11.10;99.90;;;;;;5034073;28;20581;-71
2022/12/22 14:43:05;;;;;;;6.63;2.33;;;11.00;99.90;;;;;;5037408;28;20472;-72
2022/12/22 14:45:32;;;;;;;4.13;1.93;;;11.00;99.90;;;;;;5017313;28;20440;-72
2022/12/22 14:47:57;;;;;;;3.70;1.63;;;11.00;99.90;;;;;;5036245;28;20471;-72
2022/12/22 14:50:25;;;;;;;7.07;2.50;;;10.90;99.90;;;;;;5035751;28;20460;-72
2022/12/22 14:52:57;;;;;;;6.07;2.50;;;10.80;99.90;;;;;;5035439;28;20213;-72
2022/12/22 14:55:33;;;;;;;6.83;2.03;;;10.80;99.90;;;;;;5033855;28;20436;-72
2022/12/22 14:58:08;;;;;;;4.00;1.87;;;10.70;99.90;;;;;;5033862;28;20519;-71
2022/12/22 15:00:35;;;;;;;5.63;1.97;;;10.70;99.90;;;;;;5036360;28;20455;-71
2022/12/22 15:03:05;;;;;;;4.07;2.03;;;10.60;99.90;;;;;;5032310;28;20559;-72
2022/12/22 15:05:34;;;;;;;4.27;1.97;;;10.50;99.90;;;;;;5036962;28;20475;-70
2022/12/22 15:08:01;;;;;;;5.97;2.20;;;10.50;99.90;;;;;;5033571;28;20481;-70
2022/12/22 15:10:32;;;;;;;11.23;2.10;;;10.50;99.90;;;;;;5034933;28;20445;-72
2022/12/22 15:13:03;;;;;;;7.13;1.67;;;10.40;99.90;;;;;;5033698;28;20464;-71
2022/12/22 15:15:30;;;;;;;4.20;2.70;;;10.40;99.90;;;;;;5037281;28;21176;-71
2022/12/22 15:17:56;;;;;;;6.00;2.80;;;10.40;99.90;;;;;;5017668;28;20436;-71
2022/12/22 15:20:24;;;;;;;4.63;1.93;;;10.40;99.90;;;;;;5035767;28;20973;-70
2022/12/22 15:22:50;;;;;;;7.93;3.00;;;10.40;99.90;;;;;;5035072;28;20972;-71
2022/12/22 15:25:19;;;;;;;4.50;1.73;;;10.40;99.90;;;;;;5035631;28;20451;-72
2022/12/22 15:27:45;;;;;;;6.40;1.70;;;10.40;99.90;;;;;;5027496;28;20542;-70
2022/12/22 15:30:14;;;;;;;7.70;2.37;;;10.40;99.90;;;;;;5026598;28;20564;-70
2022/12/22 15:32:43;;;;;;;2.97;1.90;;;10.30;99.90;;;;;;5029491;28;20467;-71
2022/12/22 15:35:20;;;;;;;6.87;2.03;;;10.30;99.90;;;;;;5030445;28;20448;-70
2022/12/22 15:37:46;;;;;;;6.33;1.90;;;10.30;99.90;;;;;;5027994;28;20429;-71
2022/12/22 15:40:25;;;;;;;9.40;2.83;;;10.20;99.90;;;;;;5031412;28;20444;-70
2022/12/22 15:42:50;;;;;;;5.03;1.90;;;10.20;99.90;;;;;;5026577;28;20581;-71
2022/12/22 15:45:17;;;;;;;3.30;1.93;;;10.10;99.90;;;;;;5032245;28;20448;-71
2022/12/22 15:47:47;;;;;;;6.57;2.00;;;10.10;99.90;;;;;;5032413;28;20178;-71
2022/12/22 15:50:26;;;;;;;4.23;2.20;;;10.10;99.90;;;;;;5031815;28;20480;-71
2022/12/22 15:52:56;;;;;;;6.40;2.03;;;10.10;99.90;;;;;;5026384;28;20485;-71
2022/12/22 15:55:23;;;;;;;3.60;1.60;;;10.10;99.90;;;;;;5032520;28;20515;-71
2022/12/22 15:57:50;;;;;;;4.40;1.97;;;10.00;99.90;;;;;;5032273;28;20501;-71
2022/12/22 16:00:17;;;;;;;6.77;2.40;;;10.00;99.90;;;;;;5031651;28;20433;-70
2022/12/22 16:02:43;;;;;;;5.83;2.60;;;10.00;99.90;;;;;;5031855;28;20501;-71
2022/12/22 16:05:09;;;;;;;4.97;2.47;;;10.00;99.90;;;;;;5029837;28;20817;-71
2022/12/22 16:07:35;;;;;;;7.13;2.33;;;9.90;99.90;;;;;;5031326;28;20186;-70
2022/12/22 16:10:03;;;;;;;7.57;2.63;;;9.90;99.90;;;;;;5032648;28;20468;-70
2022/12/22 16:12:29;;;;;;;5.60;2.67;;;9.90;99.90;;;;;;5029529;28;20468;-71
2022/12/22 16:14:58;;;;;;;7.73;2.80;;;9.80;99.90;;;;;;5031934;28;20444;-70
2022/12/22 16:17:27;;;;;;;7.63;3.27;;;9.80;99.90;;;;;;5029785;28;20437;-71
2022/12/22 16:19:53;;;;;;;5.60;1.93;;;9.80;99.90;;;;;;5032814;28;20436;-71
2022/12/22 16:22:29;;;;;;;10.50;2.70;;;9.80;99.90;;;;;;5032369;28;20535;-71
2022/12/22 16:24:55;;;;;;;8.40;2.73;;;9.80;99.90;;;;;;5031985;28;20206;-71
2022/12/22 16:27:21;;;;;;;7.83;3.53;;;9.80;99.90;;;;;;5032974;28;20487;-71
2022/12/22 16:29:51;;;;;;;4.20;2.90;;;9.80;99.90;;;;;;5032534;28;20596;-71
2022/12/22 16:32:27;;;;;;;6.27;2.60;;;9.80;99.90;;;;;;5029805;28;20481;-70
2022/12/22 16:35:21;;;;;;;6.27;3.33;;;9.70;99.90;;;;;;5032400;28;20929;-70
2022/12/22 16:37:48;;;;;;;6.40;2.60;;;9.70;99.90;;;;;;5027693;28;20429;-70
2022/12/22 16:40:14;;;;;;;5.27;2.87;;;9.70;99.90;;;;;;5028583;28;20429;-70
2022/12/22 16:42:49;;;;;;;10.10;3.53;;;9.70;99.90;;;;;;5031195;28;20444;-71